sensor_id;sensor_type;location;lat;lon;timestamp;temperature;humidity
20722;DHT22;10522;52.198;9.890;2023-03-11T00:00:16;1.20;99.90
20722;DHT22;10522;52.198;9.890;2023-03-11T00:02:47;1.20;99.90
20722;DHT22;10522;52.198;9.890;2023-03-11T00:05:28;1.10;99.90
20722;DHT22;10522;52.198;9.890;2023-03-11T00:07:54;1.10;99.90
20722;DHT22;10522;52.198;9.890;2023-03-11T00:10:22;1.10;99.90
20722;DHT22;10522;52.198;9.890;2023-03-11T00:12:48;1.10;99.90
20722;DHT22;10522;52.198;9.890;2023-03-11T00:15:14;1.10;99.90
20722;DHT22;10522;52.198;9.890;2023-03-11T00:17:40;1.10;99.90
20722;DHT22;10522;52.198;9.890;2023-03-11T00:20:10;1.10;99.90
20722;DHT22;10522;52.198;9.890;2023-03-11T00:22:38;1.10;99.90
20722;DHT22;10522;52.198;9.890;2023-03-11T00:25:04;1.20;99.90
20722;DHT22;10522;52.198;9.890;2023-03-11T00:27:30;1.20;99.90
20722;DHT22;10522;52.198;9.890;2023-03-11T00:29:56;1.10;99.90
20722;DHT22;10522;52.198;9.890;2023-03-11T00:32:21;1.10;99.90
20722;DHT22;10522;52.198;9.890;2023-03-11T00:34:47;1.20;99.90
20722;DHT22;10522;52.198;9.890;2023-03-11T00:37:12;1.20;99.90
20722;DHT22;10522;52.198;9.890;2023-03-11T00:39:38;1.20;99.90
20722;DHT22;10522;52.198;9.890;2023-03-11T00:42:03;1.20;99.90
20722;DHT22;10522;52.198;9.890;2023-03-11T00:44:29;1.20;99.90
20722;DHT22;10522;52.198;9.890;2023-03-11T00:46:55;1.20;99.90
20722;DHT22;10522;52.198;9.890;2023-03-11T00:49:20;1.20;99.90
20722;DHT22;10522;52.198;9.890;2023-03-11T00:51:46;1.10;99.90
20722;DHT22;10522;52.198;9.890;2023-03-11T00:54:11;1.10;99.90
20722;DHT22;10522;52.198;9.890;2023-03-11T00:56:37;1.10;99.90
20722;DHT22;10522;52.198;9.890;2023-03-11T00:59:03;1.10;99.90
20722;DHT22;10522;52.198;9.890;2023-03-11T01:01:28;1.10;99.90
20722;DHT22;10522;52.198;9.890;2023-03-11T01:03:54;1.10;99.90
20722;DHT22;10522;52.198;9.890;2023-03-11T01:06:19;1.10;99.90
20722;DHT22;10522;52.198;9.890;2023-03-11T01:08:45;1.10;99.90
20722;DHT22;10522;52.198;9.890;2023-03-11T01:11:11;1.10;99.90
20722;DHT22;10522;52.198;9.890;2023-03-11T01:13:37;1.10;99.90
20722;DHT22;10522;52.198;9.890;2023-03-11T01:16:04;1.10;99.90
20722;DHT22;10522;52.198;9.890;2023-03-11T01:18:32;1.00;99.90
20722;DHT22;10522;52.198;9.890;2023-03-11T01:20:58;1.00;99.90
20722;DHT22;10522;52.198;9.890;2023-03-11T01:23:24;0.90;99.90
20722;DHT22;10522;52.198;9.890;2023-03-11T01:25:49;0.90;99.90
20722;DHT22;10522;52.198;9.890;2023-03-11T01:28:15;0.80;99.90
20722;DHT22;10522;52.198;9.890;2023-03-11T01:30:42;0.80;99.90
20722;DHT22;10522;52.198;9.890;2023-03-11T01:33:13;0.70;99.90
20722;DHT22;10522;52.198;9.890;2023-03-11T01:35:40;0.70;99.90
20722;DHT22;10522;52.198;9.890;2023-03-11T01:38:07;0.70;99.90
20722;DHT22;10522;52.198;9.890;2023-03-11T01:40:36;0.70;99.90
20722;DHT22;10522;52.198;9.890;2023-03-11T01:43:03;0.70;99.90
20722;DHT22;10522;52.198;9.890;2023-03-11T01:46:01;0.60;99.90
20722;DHT22;10522;52.198;9.890;2023-03-11T01:48:27;0.60;99.90
20722;DHT22;10522;52.198;9.890;2023-03-11T01:50:53;0.60;99.90
20722;DHT22;10522;52.198;9.890;2023-03-11T01:53:19;0.60;99.90
20722;DHT22;10522;52.198;9.890;2023-03-11T01:55:46;0.60;99.90
20722;DHT22;10522;52.198;9.890;2023-03-11T01:58:16;0.60;99.90
20722;DHT22;10522;52.198;9.890;2023-03-11T02:00:43;0.60;99.90
20722;DHT22;10522;52.198;9.890;2023-03-11T02:03:35;0.60;99.90
20722;DHT22;10522;52.198;9.890;2023-03-11T02:06:05;0.60;99.90
20722;DHT22;10522;52.198;9.890;2023-03-11T02:08:31;0.60;99.90
20722;DHT22;10522;52.198;9.890;2023-03-11T02:11:01;0.60;99.90
20722;DHT22;10522;52.198;9.890;2023-03-11T02:13:28;0.60;99.90
20722;DHT22;10522;52.198;9.890;2023-03-11T02:15:54;0.60;99.90
20722;DHT22;10522;52.198;9.890;2023-03-11T02:18:20;0.50;99.90
20722;DHT22;10522;52.198;9.890;2023-03-11T02:21:00;0.50;99.90
20722;DHT22;10522;52.198;9.890;2023-03-11T02:29:08;0.50;99.90
20722;DHT22;10522;52.198;9.890;2023-03-11T02:31:37;0.50;99.90
20722;DHT22;10522;52.198;9.890;2023-03-11T02:34:05;0.50;99.90
20722;DHT22;10522;52.198;9.890;2023-03-11T02:36:35;0.50;99.90
20722;DHT22;10522;52.198;9.890;2023-03-11T02:39:02;0.40;99.90
20722;DHT22;10522;52.198;9.890;2023-03-11T02:41:29;0.40;99.90
20722;DHT22;10522;52.198;9.890;2023-03-11T02:43:56;0.40;99.90
20722;DHT22;10522;52.198;9.890;2023-03-11T02:46:22;0.50;99.90
20722;DHT22;10522;52.198;9.890;2023-03-11T02:48:48;0.50;99.90
20722;DHT22;10522;52.198;9.890;2023-03-11T02:51:15;0.40;99.90
20722;DHT22;10522;52.198;9.890;2023-03-11T02:53:46;0.40;99.90
20722;DHT22;10522;52.198;9.890;2023-03-11T02:56:13;0.40;99.90
20722;DHT22;10522;52.198;9.890;2023-03-11T02:58:39;0.40;99.90
20722;DHT22;10522;52.198;9.890;2023-03-11T03:01:04;0.30;99.90
20722;DHT22;10522;52.198;9.890;2023-03-11T03:03:30;0.30;99.90
20722;DHT22;10522;52.198;9.890;2023-03-11T03:05:56;0.20;99.90
20722;DHT22;10522;52.198;9.890;2023-03-11T03:08:21;0.20;99.90
20722;DHT22;10522;52.198;9.890;2023-03-11T03:10:47;0.20;99.90
20722;DHT22;10522;52.198;9.890;2023-03-11T03:13:12;0.20;99.90
20722;DHT22;10522;52.198;9.890;2023-03-11T03:15:38;0.20;99.90
20722;DHT22;10522;52.198;9.890;2023-03-11T03:18:04;0.20;99.90
20722;DHT22;10522;52.198;9.890;2023-03-11T03:20:29;0.20;99.90
20722;DHT22;10522;52.198;9.890;2023-03-11T03:22:56;0.10;99.90
20722;DHT22;10522;52.198;9.890;2023-03-11T03:25:21;0.10;99.90
20722;DHT22;10522;52.198;9.890;2023-03-11T03:27:47;0.10;99.90
20722;DHT22;10522;52.198;9.890;2023-03-11T03:30:14;0.10;99.90
20722;DHT22;10522;52.198;9.890;2023-03-11T03:32:39;0.20;99.90
20722;DHT22;10522;52.198;9.890;2023-03-11T03:35:06;0.20;99.90
20722;DHT22;10522;52.198;9.890;2023-03-11T03:37:33;0.20;99.90
20722;DHT22;10522;52.198;9.890;2023-03-11T03:39:59;0.20;99.90
20722;DHT22;10522;52.198;9.890;2023-03-11T03:42:26;0.20;99.90
20722;DHT22;10522;52.198;9.890;2023-03-11T03:44:52;0.20;99.90
20722;DHT22;10522;52.198;9.890;2023-03-11T03:47:18;0.20;99.90
20722;DHT22;10522;52.198;9.890;2023-03-11T03:49:44;0.10;99.90
20722;DHT22;10522;52.198;9.890;2023-03-11T03:52:09;0.10;99.90
20722;DHT22;10522;52.198;9.890;2023-03-11T03:54:36;0.00;99.90
20722;DHT22;10522;52.198;9.890;2023-03-11T03:57:02;0.00;99.90
20722;DHT22;10522;52.198;9.890;2023-03-11T03:59:28;0.10;99.90
20722;DHT22;10522;52.198;9.890;2023-03-11T04:01:54;0.10;99.90
20722;DHT22;10522;52.198;9.890;2023-03-11T04:04:19;0.10;99.90
20722;DHT22;10522;52.198;9.890;2023-03-11T04:06:45;0.10;99.90
20722;DHT22;10522;52.198;9.890;2023-03-11T04:09:11;0.10;99.90
20722;DHT22;10522;52.198;9.890;2023-03-11T04:11:37;0.10;99.90
20722;DHT22;10522;52.198;9.890;2023-03-11T04:14:04;0.10;99.90
20722;DHT22;10522;52.198;9.890;2023-03-11T04:16:30;0.10;99.90
20722;DHT22;10522;52.198;9.890;2023-03-11T04:18:56;0.20;99.90
20722;DHT22;10522;52.198;9.890;2023-03-11T04:21:21;0.20;99.90
20722;DHT22;10522;52.198;9.890;2023-03-11T04:23:47;0.10;99.90
20722;DHT22;10522;52.198;9.890;2023-03-11T04:26:12;0.10;99.90
20722;DHT22;10522;52.198;9.890;2023-03-11T04:28:38;0.10;99.90
20722;DHT22;10522;52.198;9.890;2023-03-11T04:31:03;0.00;99.90
20722;DHT22;10522;52.198;9.890;2023-03-11T04:33:29;0.00;99.90
20722;DHT22;10522;52.198;9.890;2023-03-11T04:35:55;0.00;99.90
20722;DHT22;10522;52.198;9.890;2023-03-11T04:38:21;-0.10;99.90
20722;DHT22;10522;52.198;9.890;2023-03-11T04:40:47;0.00;99.90
20722;DHT22;10522;52.198;9.890;2023-03-11T04:43:12;0.00;99.90
20722;DHT22;10522;52.198;9.890;2023-03-11T04:45:38;-0.10;99.90
20722;DHT22;10522;52.198;9.890;2023-03-11T04:48:05;-0.10;99.90
20722;DHT22;10522;52.198;9.890;2023-03-11T04:50:30;-0.10;99.90
20722;DHT22;10522;52.198;9.890;2023-03-11T04:52:56;-0.10;99.90
20722;DHT22;10522;52.198;9.890;2023-03-11T04:55:21;0.00;99.90
20722;DHT22;10522;52.198;9.890;2023-03-11T04:57:47;0.00;99.90
20722;DHT22;10522;52.198;9.890;2023-03-11T05:00:13;-0.10;99.90
20722;DHT22;10522;52.198;9.890;2023-03-11T05:02:40;-0.10;99.90
20722;DHT22;10522;52.198;9.890;2023-03-11T05:05:07;-0.10;99.90
20722;DHT22;10522;52.198;9.890;2023-03-11T05:07:33;-0.10;99.90
20722;DHT22;10522;52.198;9.890;2023-03-11T05:09:59;-0.20;99.90
20722;DHT22;10522;52.198;9.890;2023-03-11T05:12:24;-0.20;99.90
20722;DHT22;10522;52.198;9.890;2023-03-11T05:14:50;-0.20;99.90
20722;DHT22;10522;52.198;9.890;2023-03-11T05:17:16;-0.30;99.90
20722;DHT22;10522;52.198;9.890;2023-03-11T05:19:43;-0.30;99.90
20722;DHT22;10522;52.198;9.890;2023-03-11T05:22:09;-0.30;99.90
20722;DHT22;10522;52.198;9.890;2023-03-11T05:24:35;-0.40;99.90
20722;DHT22;10522;52.198;9.890;2023-03-11T05:27:01;-0.30;99.90
20722;DHT22;10522;52.198;9.890;2023-03-11T05:29:27;-0.30;99.90
20722;DHT22;10522;52.198;9.890;2023-03-11T05:31:52;-0.20;99.90
20722;DHT22;10522;52.198;9.890;2023-03-11T05:34:18;-0.20;99.90
20722;DHT22;10522;52.198;9.890;2023-03-11T05:36:44;-0.20;99.90
20722;DHT22;10522;52.198;9.890;2023-03-11T05:39:10;-0.10;99.90
20722;DHT22;10522;52.198;9.890;2023-03-11T05:41:35;-0.10;99.90
20722;DHT22;10522;52.198;9.890;2023-03-11T05:44:01;-0.10;99.90
20722;DHT22;10522;52.198;9.890;2023-03-11T05:46:27;-0.10;99.90
20722;DHT22;10522;52.198;9.890;2023-03-11T05:48:53;-0.10;99.90
20722;DHT22;10522;52.198;9.890;2023-03-11T05:51:18;-0.10;99.90
20722;DHT22;10522;52.198;9.890;2023-03-11T05:53:46;-0.10;99.90
20722;DHT22;10522;52.198;9.890;2023-03-11T05:56:17;-0.10;99.90
20722;DHT22;10522;52.198;9.890;2023-03-11T05:58:43;-0.10;99.90
20722;DHT22;10522;52.198;9.890;2023-03-11T06:01:11;-0.10;99.90
20722;DHT22;10522;52.198;9.890;2023-03-11T06:03:37;-0.10;99.90
20722;DHT22;10522;52.198;9.890;2023-03-11T06:06:04;-0.10;99.90
20722;DHT22;10522;52.198;9.890;2023-03-11T06:08:30;0.00;99.90
20722;DHT22;10522;52.198;9.890;2023-03-11T06:11:07;-0.10;99.90
20722;DHT22;10522;52.198;9.890;2023-03-11T06:13:33;-0.10;99.90
20722;DHT22;10522;52.198;9.890;2023-03-11T06:15:59;-0.10;99.90
20722;DHT22;10522;52.198;9.890;2023-03-11T06:18:25;-0.20;99.90
20722;DHT22;10522;52.198;9.890;2023-03-11T06:20:52;-0.30;99.90
20722;DHT22;10522;52.198;9.890;2023-03-11T06:23:18;-0.40;99.90
20722;DHT22;10522;52.198;9.890;2023-03-11T06:25:44;-0.40;99.90
20722;DHT22;10522;52.198;9.890;2023-03-11T06:28:18;-0.40;99.90
20722;DHT22;10522;52.198;9.890;2023-03-11T06:30:44;-0.50;99.90
20722;DHT22;10522;52.198;9.890;2023-03-11T06:33:10;-0.50;99.90
20722;DHT22;10522;52.198;9.890;2023-03-11T06:35:35;-0.50;99.90
20722;DHT22;10522;52.198;9.890;2023-03-11T06:38:01;-0.50;99.90
20722;DHT22;10522;52.198;9.890;2023-03-11T06:40:26;-0.40;99.90
20722;DHT22;10522;52.198;9.890;2023-03-11T06:42:52;-0.40;99.90
20722;DHT22;10522;52.198;9.890;2023-03-11T06:45:18;-0.40;99.90
20722;DHT22;10522;52.198;9.890;2023-03-11T06:47:43;-0.30;99.90
20722;DHT22;10522;52.198;9.890;2023-03-11T06:50:09;-0.20;99.90
20722;DHT22;10522;52.198;9.890;2023-03-11T06:52:35;-0.10;99.90
20722;DHT22;10522;52.198;9.890;2023-03-11T06:55:01;-0.10;99.90
20722;DHT22;10522;52.198;9.890;2023-03-11T06:57:28;-0.10;99.90
20722;DHT22;10522;52.198;9.890;2023-03-11T06:59:55;-0.10;99.90
20722;DHT22;10522;52.198;9.890;2023-03-11T07:02:21;-0.10;99.90
20722;DHT22;10522;52.198;9.890;2023-03-11T07:04:50;-0.10;99.90
20722;DHT22;10522;52.198;9.890;2023-03-11T07:07:16;-0.10;99.90
20722;DHT22;10522;52.198;9.890;2023-03-11T07:09:41;-0.10;99.90
20722;DHT22;10522;52.198;9.890;2023-03-11T07:12:07;-0.10;99.90
20722;DHT22;10522;52.198;9.890;2023-03-11T07:14:33;0.00;99.90
20722;DHT22;10522;52.198;9.890;2023-03-11T07:16:59;0.10;99.90
20722;DHT22;10522;52.198;9.890;2023-03-11T07:19:24;0.10;99.90
20722;DHT22;10522;52.198;9.890;2023-03-11T07:21:50;0.10;99.90
20722;DHT22;10522;52.198;9.890;2023-03-11T07:24:16;0.20;99.90
20722;DHT22;10522;52.198;9.890;2023-03-11T07:26:41;0.10;99.90
20722;DHT22;10522;52.198;9.890;2023-03-11T07:29:07;0.10;99.90
20722;DHT22;10522;52.198;9.890;2023-03-11T07:31:34;0.10;99.90
20722;DHT22;10522;52.198;9.890;2023-03-11T07:34:02;0.10;99.90
20722;DHT22;10522;52.198;9.890;2023-03-11T07:36:28;0.10;99.90
20722;DHT22;10522;52.198;9.890;2023-03-11T07:38:59;0.10;99.90
20722;DHT22;10522;52.198;9.890;2023-03-11T07:41:28;0.10;99.90
20722;DHT22;10522;52.198;9.890;2023-03-11T07:43:56;0.20;99.90
20722;DHT22;10522;52.198;9.890;2023-03-11T07:46:23;0.20;99.90
20722;DHT22;10522;52.198;9.890;2023-03-11T07:48:50;0.20;99.90
20722;DHT22;10522;52.198;9.890;2023-03-11T07:51:21;0.20;99.90
20722;DHT22;10522;52.198;9.890;2023-03-11T07:53:48;0.20;99.90
20722;DHT22;10522;52.198;9.890;2023-03-11T07:56:15;0.10;99.90
20722;DHT22;10522;52.198;9.890;2023-03-11T07:58:41;0.00;99.90
20722;DHT22;10522;52.198;9.890;2023-03-11T08:01:09;-0.10;99.90
20722;DHT22;10522;52.198;9.890;2023-03-11T08:03:35;-0.10;99.90
20722;DHT22;10522;52.198;9.890;2023-03-11T08:06:02;0.10;99.90
20722;DHT22;10522;52.198;9.890;2023-03-11T08:08:28;0.40;99.90
20722;DHT22;10522;52.198;9.890;2023-03-11T08:10:54;0.40;99.90
20722;DHT22;10522;52.198;9.890;2023-03-11T08:13:20;0.50;99.90
20722;DHT22;10522;52.198;9.890;2023-03-11T08:15:46;0.40;99.90
20722;DHT22;10522;52.198;9.890;2023-03-11T08:18:11;0.40;99.90
20722;DHT22;10522;52.198;9.890;2023-03-11T08:20:38;0.40;99.90
20722;DHT22;10522;52.198;9.890;2023-03-11T08:23:03;0.30;99.90
20722;DHT22;10522;52.198;9.890;2023-03-11T08:25:29;0.40;99.90
20722;DHT22;10522;52.198;9.890;2023-03-11T08:27:55;0.40;99.90
20722;DHT22;10522;52.198;9.890;2023-03-11T08:30:22;0.30;99.90
20722;DHT22;10522;52.198;9.890;2023-03-11T08:32:47;0.10;99.90
20722;DHT22;10522;52.198;9.890;2023-03-11T08:35:14;0.10;99.90
20722;DHT22;10522;52.198;9.890;2023-03-11T08:37:39;0.20;99.90
20722;DHT22;10522;52.198;9.890;2023-03-11T08:40:05;0.20;99.90
20722;DHT22;10522;52.198;9.890;2023-03-11T08:42:32;0.30;99.90
20722;DHT22;10522;52.198;9.890;2023-03-11T08:44:57;0.30;99.90
20722;DHT22;10522;52.198;9.890;2023-03-11T08:47:23;0.40;99.90
20722;DHT22;10522;52.198;9.890;2023-03-11T08:49:49;0.40;99.90
20722;DHT22;10522;52.198;9.890;2023-03-11T08:52:14;0.40;99.90
20722;DHT22;10522;52.198;9.890;2023-03-11T08:54:40;0.50;99.90
20722;DHT22;10522;52.198;9.890;2023-03-11T08:57:07;0.60;99.90
20722;DHT22;10522;52.198;9.890;2023-03-11T08:59:32;0.60;99.90
20722;DHT22;10522;52.198;9.890;2023-03-11T09:01:58;0.70;99.90
20722;DHT22;10522;52.198;9.890;2023-03-11T09:04:23;0.70;99.90
20722;DHT22;10522;52.198;9.890;2023-03-11T09:06:49;0.70;99.90
20722;DHT22;10522;52.198;9.890;2023-03-11T09:09:15;0.70;99.90
20722;DHT22;10522;52.198;9.890;2023-03-11T09:11:41;0.80;99.90
20722;DHT22;10522;52.198;9.890;2023-03-11T09:14:07;0.80;99.90
20722;DHT22;10522;52.198;9.890;2023-03-11T09:16:32;0.80;99.90
20722;DHT22;10522;52.198;9.890;2023-03-11T09:18:58;0.90;99.90
20722;DHT22;10522;52.198;9.890;2023-03-11T09:21:34;0.80;99.90
20722;DHT22;10522;52.198;9.890;2023-03-11T09:24:00;0.80;99.90
20722;DHT22;10522;52.198;9.890;2023-03-11T09:26:26;0.90;99.90
20722;DHT22;10522;52.198;9.890;2023-03-11T09:28:51;1.00;99.90
20722;DHT22;10522;52.198;9.890;2023-03-11T09:31:18;1.00;99.90
20722;DHT22;10522;52.198;9.890;2023-03-11T09:33:44;1.00;99.90
20722;DHT22;10522;52.198;9.890;2023-03-11T09:36:16;1.10;99.90
20722;DHT22;10522;52.198;9.890;2023-03-11T09:38:42;1.10;99.90
20722;DHT22;10522;52.198;9.890;2023-03-11T09:44:19;1.20;99.90
20722;DHT22;10522;52.198;9.890;2023-03-11T09:50:08;1.40;99.90
20722;DHT22;10522;52.198;9.890;2023-03-11T09:55:26;1.40;99.90
20722;DHT22;10522;52.198;9.890;2023-03-11T09:57:56;1.50;99.90
20722;DHT22;10522;52.198;9.890;2023-03-11T10:00:23;1.50;99.90
20722;DHT22;10522;52.198;9.890;2023-03-11T10:02:49;1.60;99.90
20722;DHT22;10522;52.198;9.890;2023-03-11T10:05:41;1.70;99.90
20722;DHT22;10522;52.198;9.890;2023-03-11T10:08:33;1.80;99.90
20722;DHT22;10522;52.198;9.890;2023-03-11T10:27:58;1.70;99.90
20722;DHT22;10522;52.198;9.890;2023-03-11T10:30:35;1.70;99.90
20722;DHT22;10522;52.198;9.890;2023-03-11T10:35:44;1.80;99.90
20722;DHT22;10522;52.198;9.890;2023-03-11T10:38:14;1.80;99.90
20722;DHT22;10522;52.198;9.890;2023-03-11T10:40:44;1.70;99.90
20722;DHT22;10522;52.198;9.890;2023-03-11T10:43:40;1.70;99.90
20722;DHT22;10522;52.198;9.890;2023-03-11T10:46:27;1.80;99.90
20722;DHT22;10522;52.198;9.890;2023-03-11T10:48:55;1.80;99.90
20722;DHT22;10522;52.198;9.890;2023-03-11T10:51:23;1.90;99.90
20722;DHT22;10522;52.198;9.890;2023-03-11T10:53:53;2.00;99.90
20722;DHT22;10522;52.198;9.890;2023-03-11T10:56:37;2.00;99.90
20722;DHT22;10522;52.198;9.890;2023-03-11T11:01:59;2.30;99.90
20722;DHT22;10522;52.198;9.890;2023-03-11T11:04:48;2.30;99.90
20722;DHT22;10522;52.198;9.890;2023-03-11T11:07:34;2.30;99.90
20722;DHT22;10522;52.198;9.890;2023-03-11T11:10:22;2.30;99.90
20722;DHT22;10522;52.198;9.890;2023-03-11T11:13:09;2.10;99.90
20722;DHT22;10522;52.198;9.890;2023-03-11T11:15:53;1.90;99.90
20722;DHT22;10522;52.198;9.890;2023-03-11T11:18:46;2.00;99.90
20722;DHT22;10522;52.198;9.890;2023-03-11T11:26:30;2.40;99.90
20722;DHT22;10522;52.198;9.890;2023-03-11T11:31:42;2.50;99.90
20722;DHT22;10522;52.198;9.890;2023-03-11T11:34:31;2.50;99.90
20722;DHT22;10522;52.198;9.890;2023-03-11T11:36:59;2.60;99.90
20722;DHT22;10522;52.198;9.890;2023-03-11T11:39:29;2.60;99.90
20722;DHT22;10522;52.198;9.890;2023-03-11T11:41:56;2.60;99.90
20722;DHT22;10522;52.198;9.890;2023-03-11T11:44:31;2.60;99.90
20722;DHT22;10522;52.198;9.890;2023-03-11T11:47:05;2.70;99.90
20722;DHT22;10522;52.198;9.890;2023-03-11T11:49:36;2.80;99.90
20722;DHT22;10522;52.198;9.890;2023-03-11T11:54:49;2.90;99.90
20722;DHT22;10522;52.198;9.890;2023-03-11T11:57:19;2.90;99.90
20722;DHT22;10522;52.198;9.890;2023-03-11T11:59:46;2.90;99.90
20722;DHT22;10522;52.198;9.890;2023-03-11T12:02:23;3.00;99.90
20722;DHT22;10522;52.198;9.890;2023-03-11T12:05:08;3.10;99.90
20722;DHT22;10522;52.198;9.890;2023-03-11T12:10:26;3.50;99.90
20722;DHT22;10522;52.198;9.890;2023-03-11T12:13:13;3.60;99.90
20722;DHT22;10522;52.198;9.890;2023-03-11T12:16:06;3.80;99.90
20722;DHT22;10522;52.198;9.890;2023-03-11T12:18:50;3.90;99.90
20722;DHT22;10522;52.198;9.890;2023-03-11T12:21:44;4.00;99.90
20722;DHT22;10522;52.198;9.890;2023-03-11T12:29:50;4.20;99.90
20722;DHT22;10522;52.198;9.890;2023-03-11T12:32:39;4.10;99.90
20722;DHT22;10522;52.198;9.890;2023-03-11T12:35:20;4.10;99.90
20722;DHT22;10522;52.198;9.890;2023-03-11T12:37:56;4.20;99.90
20722;DHT22;10522;52.198;9.890;2023-03-11T12:43:23;4.20;99.90
20722;DHT22;10522;52.198;9.890;2023-03-11T12:45:50;4.20;99.90
20722;DHT22;10522;52.198;9.890;2023-03-11T12:50:55;4.20;99.90
20722;DHT22;10522;52.198;9.890;2023-03-11T12:53:44;4.20;99.90
20722;DHT22;10522;52.198;9.890;2023-03-11T12:56:43;4.30;99.90
20722;DHT22;10522;52.198;9.890;2023-03-11T13:05:16;4.50;99.90
20722;DHT22;10522;52.198;9.890;2023-03-11T13:10:39;4.10;99.90
20722;DHT22;10522;52.198;9.890;2023-03-11T13:15:51;4.40;99.90
20722;DHT22;10522;52.198;9.890;2023-03-11T13:18:24;4.40;99.90
20722;DHT22;10522;52.198;9.890;2023-03-11T13:20:56;4.40;99.90
20722;DHT22;10522;52.198;9.890;2023-03-11T13:31:15;4.40;99.90
20722;DHT22;10522;52.198;9.890;2023-03-11T13:33:53;4.80;99.90
20722;DHT22;10522;52.198;9.890;2023-03-11T13:39:41;4.70;99.90
20722;DHT22;10522;52.198;9.890;2023-03-11T13:44:50;4.60;99.90
20722;DHT22;10522;52.198;9.890;2023-03-11T13:47:17;4.60;99.90
20722;DHT22;10522;52.198;9.890;2023-03-11T13:50:03;4.70;99.90
20722;DHT22;10522;52.198;9.890;2023-03-11T13:52:57;4.70;99.90
20722;DHT22;10522;52.198;9.890;2023-03-11T13:55:40;4.70;99.90
20722;DHT22;10522;52.198;9.890;2023-03-11T13:58:22;4.70;99.90
20722;DHT22;10522;52.198;9.890;2023-03-11T14:03:19;5.00;99.90
20722;DHT22;10522;52.198;9.890;2023-03-11T14:05:49;5.00;99.90
20722;DHT22;10522;52.198;9.890;2023-03-11T14:08:22;4.90;99.90
20722;DHT22;10522;52.198;9.890;2023-03-11T14:13:31;5.00;99.90
20722;DHT22;10522;52.198;9.890;2023-03-11T14:16:12;5.00;99.90
20722;DHT22;10522;52.198;9.890;2023-03-11T14:18:44;5.00;99.90
20722;DHT22;10522;52.198;9.890;2023-03-11T14:21:17;5.00;99.90
20722;DHT22;10522;52.198;9.890;2023-03-11T14:23:51;5.00;99.90
20722;DHT22;10522;52.198;9.890;2023-03-11T14:26:26;5.10;99.90
20722;DHT22;10522;52.198;9.890;2023-03-11T14:28:55;5.20;99.90
20722;DHT22;10522;52.198;9.890;2023-03-11T14:31:39;5.40;99.90
20722;DHT22;10522;52.198;9.890;2023-03-11T14:36:43;5.30;99.90
20722;DHT22;10522;52.198;9.890;2023-03-11T14:39:26;5.10;99.90
20722;DHT22;10522;52.198;9.890;2023-03-11T14:47:43;4.50;99.90
20722;DHT22;10522;52.198;9.890;2023-03-11T14:50:20;4.70;99.90
20722;DHT22;10522;52.198;9.890;2023-03-11T14:55:30;4.70;99.90
20722;DHT22;10522;52.198;9.890;2023-03-11T14:58:11;4.90;99.90
20722;DHT22;10522;52.198;9.890;2023-03-11T15:00:58;5.10;99.90
20722;DHT22;10522;52.198;9.890;2023-03-11T15:03:29;5.10;99.90
20722;DHT22;10522;52.198;9.890;2023-03-11T15:06:05;5.20;99.90
20722;DHT22;10522;52.198;9.890;2023-03-11T15:08:45;5.20;99.90
20722;DHT22;10522;52.198;9.890;2023-03-11T15:13:40;5.00;99.90
20722;DHT22;10522;52.198;9.890;2023-03-11T15:16:20;4.90;99.90
20722;DHT22;10522;52.198;9.890;2023-03-11T15:18:46;4.90;99.90
20722;DHT22;10522;52.198;9.890;2023-03-11T15:21:14;5.10;99.90
20722;DHT22;10522;52.198;9.890;2023-03-11T15:24:14;5.10;99.90
20722;DHT22;10522;52.198;9.890;2023-03-11T15:26:52;5.20;99.90
20722;DHT22;10522;52.198;9.890;2023-03-11T15:29:18;5.10;99.90
20722;DHT22;10522;52.198;9.890;2023-03-11T15:31:46;5.70;99.90
20722;DHT22;10522;52.198;9.890;2023-03-11T15:36:54;7.40;99.90
20722;DHT22;10522;52.198;9.890;2023-03-11T15:44:35;8.20;99.90
20722;DHT22;10522;52.198;9.890;2023-03-11T15:47:04;7.70;99.90
20722;DHT22;10522;52.198;9.890;2023-03-11T15:49:30;7.40;99.90
20722;DHT22;10522;52.198;9.890;2023-03-11T15:52:00;7.50;99.90
20722;DHT22;10522;52.198;9.890;2023-03-11T15:54:26;7.50;99.90
20722;DHT22;10522;52.198;9.890;2023-03-11T15:56:52;7.80;99.90
20722;DHT22;10522;52.198;9.890;2023-03-11T15:59:19;7.80;99.90
20722;DHT22;10522;52.198;9.890;2023-03-11T16:01:45;8.10;99.90
20722;DHT22;10522;52.198;9.890;2023-03-11T16:04:16;8.10;99.90
20722;DHT22;10522;52.198;9.890;2023-03-11T16:06:43;8.00;99.90
20722;DHT22;10522;52.198;9.890;2023-03-11T16:09:09;8.50;99.90
20722;DHT22;10522;52.198;9.890;2023-03-11T16:11:36;8.70;99.90
20722;DHT22;10522;52.198;9.890;2023-03-11T16:14:02;8.50;99.90
20722;DHT22;10522;52.198;9.890;2023-03-11T16:16:28;8.40;99.90
20722;DHT22;10522;52.198;9.890;2023-03-11T16:18:54;8.20;99.90
20722;DHT22;10522;52.198;9.890;2023-03-11T16:21:21;8.00;99.90
20722;DHT22;10522;52.198;9.890;2023-03-11T16:23:48;7.70;99.90
20722;DHT22;10522;52.198;9.890;2023-03-11T16:26:14;8.00;99.90
20722;DHT22;10522;52.198;9.890;2023-03-11T16:28:40;8.10;99.90
20722;DHT22;10522;52.198;9.890;2023-03-11T16:31:07;7.90;99.90
20722;DHT22;10522;52.198;9.890;2023-03-11T16:33:36;7.90;99.90
20722;DHT22;10522;52.198;9.890;2023-03-11T16:36:02;7.40;99.90
20722;DHT22;10522;52.198;9.890;2023-03-11T16:38:29;6.80;99.90
20722;DHT22;10522;52.198;9.890;2023-03-11T16:41:00;6.30;99.90
20722;DHT22;10522;52.198;9.890;2023-03-11T16:43:27;5.60;99.90
20722;DHT22;10522;52.198;9.890;2023-03-11T16:45:53;4.90;99.90
20722;DHT22;10522;52.198;9.890;2023-03-11T16:48:22;4.70;99.90
20722;DHT22;10522;52.198;9.890;2023-03-11T16:50:49;4.50;99.90
20722;DHT22;10522;52.198;9.890;2023-03-11T16:53:14;4.20;99.90
20722;DHT22;10522;52.198;9.890;2023-03-11T16:55:44;3.60;99.90
20722;DHT22;10522;52.198;9.890;2023-03-11T16:58:12;3.20;99.90
20722;DHT22;10522;52.198;9.890;2023-03-11T17:00:38;3.00;99.90
20722;DHT22;10522;52.198;9.890;2023-03-11T17:03:05;2.70;99.90
20722;DHT22;10522;52.198;9.890;2023-03-11T17:05:31;2.50;99.90
20722;DHT22;10522;52.198;9.890;2023-03-11T17:07:57;2.30;99.90
20722;DHT22;10522;52.198;9.890;2023-03-11T17:10:35;2.20;99.90
20722;DHT22;10522;52.198;9.890;2023-03-11T17:13:03;2.20;99.90
20722;DHT22;10522;52.198;9.890;2023-03-11T17:15:28;2.10;99.90
20722;DHT22;10522;52.198;9.890;2023-03-11T17:17:54;2.00;99.90
20722;DHT22;10522;52.198;9.890;2023-03-11T17:20:19;1.80;99.90
20722;DHT22;10522;52.198;9.890;2023-03-11T17:22:45;1.70;99.90
20722;DHT22;10522;52.198;9.890;2023-03-11T17:25:11;1.60;99.90
20722;DHT22;10522;52.198;9.890;2023-03-11T17:27:36;1.50;99.90
20722;DHT22;10522;52.198;9.890;2023-03-11T17:30:05;1.50;99.90
20722;DHT22;10522;52.198;9.890;2023-03-11T17:32:31;1.40;99.90
20722;DHT22;10522;52.198;9.890;2023-03-11T17:34:57;1.30;99.90
20722;DHT22;10522;52.198;9.890;2023-03-11T17:37:22;1.30;99.90
20722;DHT22;10522;52.198;9.890;2023-03-11T17:39:48;1.30;99.90
20722;DHT22;10522;52.198;9.890;2023-03-11T17:42:14;1.30;99.90
20722;DHT22;10522;52.198;9.890;2023-03-11T17:44:39;1.30;99.90
20722;DHT22;10522;52.198;9.890;2023-03-11T17:47:05;1.20;99.90